createdAt,value
2019-01-28T00:00:00.590Z,60.30
2019-01-28T00:05:06.556Z,75.60
2019-01-28T00:10:11.597Z,74.87
2019-01-28T00:15:17.593Z,79.10
2019-01-28T00:20:22.548Z,84.73
2019-01-28T00:25:27.566Z,83.67
2019-01-28T00:30:32.577Z,91.20
2019-01-28T00:35:37.552Z,91.97
2019-01-28T00:40:42.551Z,99.23
2019-01-28T00:45:47.529Z,91.83
2019-01-28T00:50:52.761Z,87.13
2019-01-28T00:55:58.021Z,97.37
2019-01-28T01:01:03.154Z,96.53
2019-01-28T01:06:08.318Z,128.13
2019-01-28T01:11:13.325Z,96.30
2019-01-28T01:16:18.413Z,101.13
2019-01-28T01:21:23.396Z,102.67
2019-01-28T01:26:28.411Z,94.60
2019-01-28T01:31:34.568Z,96.63
2019-01-28T01:36:39.608Z,97.50
2019-01-28T01:41:44.603Z,92.47
2019-01-28T01:46:49.610Z,96.27
2019-01-28T01:51:54.632Z,94.63
2019-01-28T01:56:59.612Z,96.00
2019-01-28T02:02:04.582Z,91.90
2019-01-28T02:07:11.500Z,91.37
2019-01-28T02:12:16.232Z,101.33
2019-01-28T02:17:21.229Z,86.70
2019-01-28T02:22:26.202Z,91.03
2019-01-28T02:27:31.173Z,68.70
2019-01-28T02:32:36.185Z,74.00
2019-01-28T02:37:41.223Z,86.27
2019-01-28T02:42:47.619Z,92.00
2019-01-28T02:47:52.622Z,109.57
2019-01-28T02:52:57.673Z,107.20
2019-01-28T02:58:02.656Z,114.13
2019-01-28T03:03:07.659Z,106.67
2019-01-28T03:08:12.653Z,105.93
2019-01-28T03:13:17.643Z,110.90
2019-01-28T03:18:24.393Z,101.50
2019-01-28T03:23:29.976Z,104.63
2019-01-28T03:28:36.708Z,90.87
2019-01-28T03:33:41.697Z,70.27
2019-01-28T03:38:46.696Z,57.73
2019-01-28T03:43:51.693Z,61.90
2019-01-28T03:48:56.726Z,67.47
2019-01-28T03:54:01.703Z,67.33
2019-01-28T03:59:06.812Z,73.93
2019-01-28T04:04:11.826Z,81.57
2019-01-28T04:09:16.889Z,91.90
2019-01-28T04:14:22.856Z,93.17
2019-01-28T04:19:27.875Z,90.50
2019-01-28T04:24:32.863Z,84.63
2019-01-28T04:29:38.026Z,86.63
2019-01-28T04:34:43.068Z,87.93
2019-01-28T04:39:48.074Z,88.47
2019-01-28T04:44:53.089Z,88.83
2019-01-28T04:49:58.248Z,84.27
2019-01-28T04:55:03.254Z,90.73
2019-01-28T05:00:13.588Z,87.17
2019-01-28T05:05:18.632Z,92.20
2019-01-28T05:10:23.674Z,90.87
2019-01-28T05:15:28.660Z,93.57
2019-01-28T05:20:35.517Z,93.23
2019-01-28T05:25:40.493Z,83.07
2019-01-28T05:30:45.725Z,83.70
2019-01-28T05:35:50.764Z,86.67
2019-01-28T05:40:55.824Z,85.37
2019-01-28T05:46:00.816Z,84.60
2019-01-28T05:51:07.116Z,91.30
2019-01-28T05:56:12.091Z,88.00
2019-01-28T06:01:17.099Z,91.00
2019-01-28T06:06:22.116Z,88.83
2019-01-28T06:11:27.113Z,86.50
2019-01-28T06:16:32.092Z,86.00
2019-01-28T06:21:37.096Z,91.07
2019-01-28T06:26:42.343Z,98.67
2019-01-28T06:31:47.304Z,89.97
2019-01-28T06:36:52.309Z,85.67
2019-01-28T06:41:57.367Z,100.40
2019-01-28T06:47:02.691Z,105.27
2019-01-28T06:52:08.993Z,106.13
2019-01-28T06:57:14.018Z,125.97
2019-01-28T07:02:19.005Z,138.33
2019-01-28T07:07:24.001Z,125.87
2019-01-28T07:12:30.003Z,126.07
2019-01-28T07:17:34.997Z,128.13
2019-01-28T07:22:40.024Z,117.67
2019-01-28T07:27:45.154Z,117.43
2019-01-28T07:32:50.173Z,121.53
2019-01-28T07:37:55.375Z,116.20
2019-01-28T07:43:00.329Z,115.80
2019-01-28T07:48:06.429Z,127.27
2019-01-28T07:53:11.462Z,124.73
2019-01-28T07:58:16.583Z,139.90
2019-01-28T08:03:21.788Z,146.57
2019-01-28T08:08:26.793Z,186.50
2019-01-28T08:13:31.773Z,196.83
2019-01-28T08:18:36.772Z,192.10
2019-01-28T08:23:41.754Z,188.43
2019-01-28T08:28:46.748Z,181.03
2019-01-28T08:33:51.782Z,178.23
2019-01-28T08:38:56.815Z,155.17
2019-01-28T08:44:01.819Z,140.60
2019-01-28T08:49:07.489Z,144.87
2019-01-28T08:54:12.440Z,143.37
2019-01-28T08:59:17.465Z,135.93
2019-01-28T09:04:22.463Z,122.63
2019-01-28T09:09:27.436Z,127.13
2019-01-28T09:14:33.544Z,119.13
2019-01-28T09:19:38.523Z,116.23
2019-01-28T09:24:43.548Z,118.17
2019-01-28T09:29:48.984Z,129.37
2019-01-28T09:34:53.972Z,132.13
2019-01-28T09:39:59.015Z,131.67
2019-01-28T09:45:04.320Z,142.00
2019-01-28T09:50:10.133Z,138.00
2019-01-28T09:55:15.359Z,128.70
2019-01-28T10:00:26.428Z,139.90
2019-01-28T10:05:31.636Z,158.07
2019-01-28T10:10:38.688Z,174.30
2019-01-28T10:15:43.704Z,186.03
2019-01-28T10:20:49.884Z,182.80
2019-01-28T10:25:57.723Z,189.83
2019-01-28T10:31:01.499Z,171.03
2019-01-28T10:36:06.841Z,163.30
2019-01-28T10:41:11.860Z,157.33
2019-01-28T10:46:16.858Z,144.17
2019-01-28T10:51:21.844Z,151.33
2019-01-28T10:56:26.857Z,174.37
2019-01-28T11:01:31.957Z,176.63
2019-01-28T11:06:36.995Z,154.77
2019-01-28T11:11:42.953Z,138.70
2019-01-28T11:16:48.097Z,132.77
2019-01-28T11:21:53.065Z,155.73
2019-01-28T11:26:58.062Z,114.17
2019-01-28T11:32:03.069Z,109.83
2019-01-28T11:37:08.239Z,89.63
2019-01-28T11:42:13.508Z,87.47
2019-01-28T11:47:18.607Z,91.20
2019-01-28T11:52:23.694Z,88.43
2019-01-28T11:57:28.849Z,112.23
2019-01-28T12:02:35.750Z,178.67
2019-01-28T12:07:40.724Z,164.27
2019-01-28T12:12:47.091Z,111.17
2019-01-28T12:17:52.460Z,118.17
2019-01-28T12:22:57.520Z,159.60
2019-01-28T12:28:02.659Z,168.47
2019-01-28T12:33:07.672Z,274.43
2019-01-28T12:38:12.702Z,115.20
2019-01-28T12:43:17.736Z,87.20
2019-01-28T12:48:23.204Z,70.97
2019-01-28T12:53:28.631Z,72.67
2019-01-28T12:58:33.641Z,67.40
2019-01-28T13:03:38.738Z,54.47
2019-01-28T13:08:43.730Z,94.13
2019-01-28T13:13:48.709Z,92.73
2019-01-28T13:18:53.737Z,115.87
2019-01-28T13:23:58.735Z,86.70
2019-01-28T13:29:03.733Z,81.17
2019-01-28T13:34:08.961Z,89.73
2019-01-28T13:39:13.978Z,147.63
2019-01-28T13:44:18.954Z,99.73
2019-01-28T13:49:23.992Z,101.93
2019-01-28T13:54:28.986Z,122.83
2019-01-28T13:59:34.168Z,119.07
2019-01-28T14:04:39.208Z,125.73
2019-01-28T14:09:44.220Z,115.70
2019-01-28T14:14:49.238Z,115.97
2019-01-28T14:19:54.577Z,109.57
2019-01-28T14:24:59.601Z,114.63
2019-01-28T14:30:06.703Z,111.50
2019-01-28T14:35:11.769Z,114.83
2019-01-28T14:40:19.176Z,142.03
2019-01-28T14:45:24.415Z,130.17
2019-01-28T14:50:31.429Z,125.87
2019-01-28T14:55:36.720Z,184.80
2019-01-28T15:00:43.164Z,134.77
2019-01-28T15:05:48.151Z,110.00
2019-01-28T15:10:53.201Z,65.23
2019-01-28T15:15:58.234Z,88.07
2019-01-28T15:21:03.360Z,81.10
2019-01-28T15:26:08.761Z,85.20
2019-01-28T15:31:13.735Z,83.70
2019-01-28T15:36:18.768Z,78.17
2019-01-28T15:41:23.755Z,96.13
2019-01-28T15:46:29.060Z,96.33
2019-01-28T15:51:34.042Z,95.70
2019-01-28T15:56:39.042Z,139.40
2019-01-28T16:01:47.387Z,49.97
2019-01-28T16:06:52.373Z,40.50
2019-01-28T16:11:57.367Z,28.43
2019-01-28T16:17:02.364Z,31.90
2019-01-28T16:22:07.996Z,40.10
2019-01-28T16:27:12.957Z,38.37
2019-01-28T16:32:17.943Z,43.93
2019-01-28T16:37:22.973Z,59.27
2019-01-28T16:42:27.997Z,81.00
2019-01-28T16:47:32.985Z,50.67
2019-01-28T16:52:37.976Z,57.63
2019-01-28T16:57:43.062Z,46.73
2019-01-28T17:02:48.117Z,46.23
2019-01-28T17:07:53.323Z,33.93
2019-01-28T17:12:58.275Z,25.53
2019-01-28T17:18:04.581Z,25.27
2019-01-28T17:23:09.567Z,28.57
2019-01-28T17:28:14.553Z,25.20
2019-01-28T17:33:19.555Z,24.13
2019-01-28T17:38:24.579Z,27.57
2019-01-28T17:43:29.585Z,24.17
2019-01-28T17:48:34.556Z,23.97
2019-01-28T17:53:39.533Z,22.27
2019-01-28T17:58:44.788Z,21.97
2019-01-28T18:03:50.396Z,23.53
2019-01-28T18:08:55.447Z,26.53
2019-01-28T18:14:00.447Z,25.97
2019-01-28T18:19:05.451Z,27.33
2019-01-28T18:24:10.440Z,24.97
2019-01-28T18:29:15.468Z,22.20
2019-01-28T18:34:20.443Z,26.00
2019-01-28T18:39:25.470Z,26.33
2019-01-28T18:44:30.472Z,23.10
2019-01-28T18:49:35.474Z,17.17
2019-01-28T18:54:40.760Z,19.17
2019-01-28T18:59:45.965Z,31.90
2019-01-28T19:04:50.964Z,48.77
2019-01-28T19:10:11.458Z,44.07
2019-01-28T19:15:41.425Z,42.60
2019-01-28T19:20:54.435Z,42.07
2019-01-28T19:25:59.432Z,42.20
2019-01-28T19:31:04.775Z,43.20
2019-01-28T19:36:09.775Z,40.93
2019-01-28T19:41:14.870Z,42.67
2019-01-28T19:46:20.570Z,53.13
2019-01-28T19:51:25.576Z,61.13
2019-01-28T19:56:30.563Z,20.73
2019-01-28T20:01:35.573Z,29.40
2019-01-28T20:06:40.547Z,37.60
2019-01-28T20:11:45.537Z,42.63
2019-01-28T20:16:50.551Z,43.63
2019-01-28T20:21:55.537Z,52.53
2019-01-28T20:27:00.529Z,49.67
2019-01-28T20:32:05.701Z,49.70
2019-01-28T20:37:10.693Z,66.60
2019-01-28T20:42:15.679Z,66.73
2019-01-28T20:47:20.678Z,69.33
2019-01-28T20:52:25.678Z,67.77
2019-01-28T20:57:30.678Z,70.10
2019-01-28T21:02:35.640Z,58.70
2019-01-28T21:07:40.675Z,66.23
2019-01-28T21:12:45.729Z,61.60
2019-01-28T21:17:51.179Z,63.47
2019-01-28T21:22:56.140Z,69.40
2019-01-28T21:28:01.148Z,62.40
2019-01-28T21:33:06.341Z,64.73
2019-01-28T21:38:14.270Z,59.17
2019-01-28T21:43:19.250Z,65.63
2019-01-28T21:48:24.220Z,57.83
2019-01-28T21:53:29.235Z,61.60
2019-01-28T21:58:34.235Z,58.60
2019-01-28T22:03:39.224Z,57.60
2019-01-28T22:08:44.198Z,61.67
2019-01-28T22:13:49.205Z,61.40
2019-01-28T22:18:54.206Z,59.83
2019-01-28T22:23:59.201Z,48.73
2019-01-28T22:29:04.700Z,47.70
2019-01-28T22:34:09.707Z,41.87
2019-01-28T22:39:14.842Z,40.37
2019-01-28T22:44:19.886Z,37.90
2019-01-28T22:49:24.883Z,36.00
2019-01-28T22:54:29.871Z,30.13
2019-01-28T22:59:34.864Z,31.47
2019-01-28T23:04:42.734Z,25.37
2019-01-28T23:09:47.747Z,25.27
2019-01-28T23:14:52.727Z,23.03
2019-01-28T23:19:58.143Z,21.87
2019-01-28T23:25:03.200Z,25.43
2019-01-28T23:30:10.255Z,22.90
2019-01-28T23:35:15.661Z,25.27
2019-01-28T23:40:21.955Z,26.67
2019-01-28T23:45:27.716Z,38.60
2019-01-28T23:50:32.847Z,40.70
2019-01-28T23:55:37.824Z,55.10
